createdAt,value
2022-12-19T00:00:53.757Z,1018.6
2022-12-19T00:03:54.089Z,1018.5
2022-12-19T00:06:54.235Z,1018.5
2022-12-19T00:09:54.478Z,1018.5
2022-12-19T00:12:54.668Z,1018.5
2022-12-19T00:15:54.967Z,1018.4
2022-12-19T00:18:55.586Z,1018.4
2022-12-19T00:21:55.365Z,1018.3
2022-12-19T00:24:55.604Z,1018.3
2022-12-19T00:27:55.821Z,1018.2
2022-12-19T00:30:56.089Z,1018.2
2022-12-19T00:33:51.301Z,1018.1
2022-12-19T00:36:51.547Z,1018.1
2022-12-19T00:39:51.748Z,1018
2022-12-19T00:42:53.757Z,1018
2022-12-19T00:45:52.250Z,1017.9
2022-12-19T00:48:52.449Z,1017.9
2022-12-19T00:51:52.665Z,1017.8
2022-12-19T00:54:52.976Z,1017.8
2022-12-19T00:57:53.142Z,1017.7
2022-12-19T01:00:53.454Z,1017.7
2022-12-19T01:04:26.766Z,1017.7
2022-12-19T01:06:53.809Z,1017.7
2022-12-19T01:09:54.039Z,1017.7
2022-12-19T01:12:59.298Z,1017.7
2022-12-19T01:15:54.504Z,1017.7
2022-12-19T01:18:54.736Z,1017.7
2022-12-19T01:21:54.960Z,1017.7
2022-12-19T01:24:55.207Z,1017.7
2022-12-19T01:27:55.454Z,1017.7
2022-12-19T01:30:55.664Z,1017.6
2022-12-19T01:33:50.863Z,1017.6
2022-12-19T01:36:51.091Z,1017.6
2022-12-19T01:39:56.357Z,1017.5
2022-12-19T01:42:51.583Z,1017.5
2022-12-19T01:45:51.872Z,1017.5
2022-12-19T01:48:52.026Z,1017.4
2022-12-19T01:51:52.254Z,1017.4
2022-12-19T01:54:52.510Z,1017.4
2022-12-19T01:57:52.709Z,1017.3
2022-12-19T02:00:52.987Z,1017.3
2022-12-19T02:03:53.237Z,1017.3
2022-12-19T02:06:53.424Z,1017.2
2022-12-19T02:09:56.778Z,1017.2
2022-12-19T02:12:53.897Z,1017.2
2022-12-19T02:15:54.135Z,1017.1
2022-12-19T02:18:54.367Z,1017.1
2022-12-19T02:21:55.078Z,1017
2022-12-19T02:24:54.841Z,1016.9
2022-12-19T02:27:55.031Z,1016.8
2022-12-19T02:30:55.280Z,1016.8
2022-12-19T02:33:56.302Z,1016.7
2022-12-19T02:36:55.732Z,1016.7
2022-12-19T02:39:55.940Z,1016.6
2022-12-19T02:42:51.202Z,1016.6
2022-12-19T02:45:51.594Z,1016.6
2022-12-19T02:48:51.646Z,1016.6
2022-12-19T02:51:51.854Z,1016.5
2022-12-19T02:54:52.129Z,1016.5
2022-12-19T02:57:52.323Z,1016.5
2022-12-19T03:00:52.636Z,1016.5
2022-12-19T03:03:52.793Z,1016.5
2022-12-19T03:06:53.030Z,1016.5
2022-12-19T03:09:53.268Z,1016.5
2022-12-19T03:12:53.525Z,1016.5
2022-12-19T03:15:53.746Z,1016.5
2022-12-19T03:18:53.969Z,1016.5
2022-12-19T03:21:54.217Z,1016.4
2022-12-19T03:24:54.463Z,1016.4
2022-12-19T03:27:54.666Z,1016.3
2022-12-19T03:30:54.952Z,1016.3
2022-12-19T03:33:55.086Z,1016.2
2022-12-19T03:36:55.469Z,1016.2
2022-12-19T03:39:55.593Z,1016.1
2022-12-19T03:42:55.829Z,1016.1
2022-12-19T03:45:51.116Z,1016.1
2022-12-19T03:48:51.308Z,1016
2022-12-19T03:51:54.880Z,1016
2022-12-19T03:54:51.751Z,1015.9
2022-12-19T03:57:51.976Z,1015.9
2022-12-19T04:00:52.219Z,1015.9
2022-12-19T04:03:52.527Z,1015.8
2022-12-19T04:06:52.689Z,1015.8
2022-12-19T04:09:52.922Z,1015.7
2022-12-19T04:12:53.169Z,1015.7
2022-12-19T04:15:53.425Z,1015.6
2022-12-19T04:18:53.624Z,1015.6
2022-12-19T04:21:53.831Z,1015.6
2022-12-19T04:24:54.060Z,1015.5
2022-12-19T04:27:54.282Z,1015.5
2022-12-19T04:30:54.606Z,1015.5
2022-12-19T04:34:04.737Z,1015.5
2022-12-19T04:36:54.992Z,1015.5
2022-12-19T04:39:55.237Z,1015.5
2022-12-19T04:42:55.427Z,1015.5
2022-12-19T04:45:57.607Z,1015.4
2022-12-19T04:48:50.933Z,1015.4
2022-12-19T04:51:56.116Z,1015.3
2022-12-19T04:54:56.325Z,1015.2
2022-12-19T04:57:51.598Z,1015.1
2022-12-19T05:00:51.753Z,1015
2022-12-19T05:03:55.699Z,1014.9
2022-12-19T05:06:52.246Z,1014.8
2022-12-19T05:09:52.431Z,1014.7
2022-12-19T05:12:52.718Z,1014.7
2022-12-19T05:15:52.926Z,1014.6
2022-12-19T05:18:53.166Z,1014.6
2022-12-19T05:21:53.387Z,1014.6
2022-12-19T05:24:53.627Z,1014.5
2022-12-19T05:27:53.855Z,1014.5
2022-12-19T05:30:54.094Z,1014.5
2022-12-19T05:33:54.253Z,1014.5
2022-12-19T05:36:54.543Z,1014.5
2022-12-19T05:39:54.739Z,1014.5
2022-12-19T05:42:54.971Z,1014.5
2022-12-19T05:45:55.191Z,1014.4
2022-12-19T05:49:00.253Z,1014.4
2022-12-19T05:51:55.669Z,1014.4
2022-12-19T05:54:50.909Z,1014.4
2022-12-19T05:57:51.116Z,1014.3
2022-12-19T06:00:51.396Z,1014.3
2022-12-19T06:03:56.759Z,1014.2
2022-12-19T06:06:51.813Z,1014.2
2022-12-19T06:09:52.061Z,1014.1
2022-12-19T06:12:52.311Z,1014.1
2022-12-19T06:15:52.564Z,1014.1
2022-12-19T06:18:52.755Z,1014
2022-12-19T06:21:52.968Z,1014
2022-12-19T06:24:53.180Z,1013.9
2022-12-19T06:27:53.451Z,1013.9
2022-12-19T06:30:53.705Z,1013.8
2022-12-19T06:33:53.883Z,1013.8
2022-12-19T06:36:54.113Z,1013.7
2022-12-19T06:39:54.373Z,1013.7
2022-12-19T06:42:54.628Z,1013.7
2022-12-19T06:45:54.869Z,1013.7
2022-12-19T06:48:55.085Z,1013.7
2022-12-19T06:51:55.297Z,1013.6
2022-12-19T06:54:55.531Z,1013.6
2022-12-19T06:57:50.758Z,1013.6
2022-12-19T07:00:56.133Z,1013.7
2022-12-19T07:03:56.211Z,1013.7
2022-12-19T07:06:51.430Z,1013.6
2022-12-19T07:09:51.648Z,1013.7
2022-12-19T07:12:51.921Z,1013.7
2022-12-19T07:15:52.141Z,1013.7
2022-12-19T07:18:52.387Z,1013.6
2022-12-19T07:21:52.585Z,1013.6
2022-12-19T07:24:52.991Z,1013.6
2022-12-19T07:27:53.207Z,1013.6
2022-12-19T07:30:53.384Z,1013.6
2022-12-19T07:33:53.629Z,1013.5
2022-12-19T07:36:53.901Z,1013.5
2022-12-19T07:39:54.128Z,1013.5
2022-12-19T07:42:54.361Z,1013.5
2022-12-19T07:45:54.639Z,1013.5
2022-12-19T07:48:54.784Z,1013.5
2022-12-19T07:51:55.003Z,1013.5
2022-12-19T07:54:55.296Z,1013.4
2022-12-19T07:58:00.557Z,1013.4
2022-12-19T08:00:50.843Z,1013.4
2022-12-19T08:03:55.994Z,1013.4
2022-12-19T08:06:51.242Z,1013.4
2022-12-19T08:09:51.446Z,1013.4
2022-12-19T08:12:51.674Z,1013.4
2022-12-19T08:15:51.886Z,1013.4
2022-12-19T08:18:52.118Z,1013.3
2022-12-19T08:21:52.327Z,1013.3
2022-12-19T08:24:52.585Z,1013.3
2022-12-19T08:27:52.828Z,1013.3
2022-12-19T08:30:53.264Z,1013.2
2022-12-19T08:33:53.239Z,1013.2
2022-12-19T08:36:53.460Z,1013.2
2022-12-19T08:39:53.748Z,1013.1
2022-12-19T08:42:53.945Z,1013.1
2022-12-19T08:45:54.260Z,1013.1
2022-12-19T08:48:54.427Z,1013.1
2022-12-19T08:51:54.645Z,1013
2022-12-19T08:54:54.837Z,1013
2022-12-19T08:57:55.034Z,1013
2022-12-19T09:01:05.785Z,1013
2022-12-19T09:06:08.117Z,1013
2022-12-19T09:06:55.788Z,1012.9
2022-12-19T09:09:55.989Z,1012.9
2022-12-19T09:12:58.216Z,1012.9
2022-12-19T09:15:51.390Z,1012.8
2022-12-19T09:18:51.856Z,1012.8
2022-12-19T09:21:51.903Z,1012.8
2022-12-19T09:24:52.100Z,1012.8
2022-12-19T09:28:42.386Z,1012.8
2022-12-19T09:30:52.661Z,1012.7
2022-12-19T09:33:52.769Z,1012.7
2022-12-19T09:36:53.090Z,1012.7
2022-12-19T09:39:59.435Z,1012.7
2022-12-19T09:42:53.458Z,1012.7
2022-12-19T09:45:53.827Z,1012.6
2022-12-19T09:48:55.616Z,1012.6
2022-12-19T09:51:54.136Z,1012.6
2022-12-19T09:54:54.400Z,1012.5
2022-12-19T09:57:54.563Z,1012.5
2022-12-19T10:01:00.619Z,1012.5
2022-12-19T10:03:55.232Z,1012.5
2022-12-19T10:12:50.845Z,1012.3
2022-12-19T10:13:01.049Z,1012.3
2022-12-19T10:16:00.942Z,1012.3
2022-12-19T10:18:57.401Z,1012.3
2022-12-19T10:22:19.455Z,1012.3
2022-12-19T10:25:09.861Z,1012.2
2022-12-19T10:28:00.474Z,1012.2
2022-12-19T10:30:52.408Z,1012.2
2022-12-19T10:33:52.437Z,1012.2
2022-12-19T10:37:35.235Z,1012.2
2022-12-19T10:39:52.834Z,1012.2
2022-12-19T10:42:53.094Z,1012.1
2022-12-19T10:45:53.322Z,1012.1
2022-12-19T10:48:53.549Z,1012.1
2022-12-19T10:51:53.680Z,1012
2022-12-19T10:54:53.989Z,1012
2022-12-19T10:57:54.185Z,1011.9
2022-12-19T11:00:54.388Z,1011.9
2022-12-19T11:03:54.615Z,1011.9
2022-12-19T11:06:54.829Z,1011.8
2022-12-19T11:13:24.774Z,1011.8
2022-12-19T11:30:48.382Z,1011.5
2022-12-19T11:31:11.086Z,1011.5
2022-12-19T11:31:52.920Z,1011.5
2022-12-19T11:32:01.752Z,1011.5
2022-12-19T11:32:10.331Z,1011.5
2022-12-19T11:32:20.570Z,1011.5
2022-12-19T11:32:34.017Z,1011.5
2022-12-19T11:32:38.888Z,1011.5
2022-12-19T11:32:39.057Z,1011.5
2022-12-19T11:33:52.056Z,1011.5
2022-12-19T11:36:52.141Z,1011.4
2022-12-19T11:39:52.379Z,1011.4
2022-12-19T11:43:44.382Z,1011.4
2022-12-19T11:45:52.832Z,1011.3
2022-12-19T11:48:52.989Z,1011.3
2022-12-19T11:51:53.283Z,1011.3
2022-12-19T11:54:53.497Z,1011.3
2022-12-19T11:57:53.724Z,1011.2
2022-12-19T12:00:53.952Z,1011.2
2022-12-19T12:04:03.315Z,1011.2
2022-12-19T12:06:54.482Z,1011.2
2022-12-19T12:31:26.161Z,1011.1
2022-12-19T12:35:28.860Z,1011
2022-12-19T12:35:32.684Z,1011
2022-12-19T12:35:33.127Z,1010.9
2022-12-19T12:35:34.975Z,1011
2022-12-19T12:35:38.054Z,1011
2022-12-19T12:35:54.321Z,1011
2022-12-19T12:37:03.541Z,1010.9
2022-12-19T12:38:00.859Z,1010.9
2022-12-19T12:38:00.876Z,1010.9
2022-12-19T12:38:06.954Z,1010.9
2022-12-19T12:38:21.945Z,1010.9
2022-12-19T12:39:51.876Z,1010.9
2022-12-19T12:42:52.208Z,1010.8
2022-12-19T12:45:52.449Z,1010.8
2022-12-19T12:48:52.537Z,1010.8
2022-12-19T12:51:52.768Z,1010.8
2022-12-19T12:54:53.049Z,1010.8
2022-12-19T12:57:53.310Z,1010.8
2022-12-19T13:00:53.594Z,1010.8
2022-12-19T13:03:53.751Z,1010.8
2022-12-19T13:06:53.906Z,1010.7
2022-12-19T13:09:54.149Z,1010.7
2022-12-19T13:12:54.383Z,1010.7
2022-12-19T13:15:54.673Z,1010.6
2022-12-19T13:18:55.547Z,1010.6
2022-12-19T13:21:55.112Z,1010.6
2022-12-19T13:24:55.347Z,1010.6
2022-12-19T13:27:55.510Z,1010.6
2022-12-19T13:31:23.448Z,1010.6
2022-12-19T13:33:56.730Z,1010.5
2022-12-19T13:40:07.420Z,1010.6
2022-12-19T13:40:12.912Z,1010.6
2022-12-19T13:43:10.967Z,1010.6
2022-12-19T13:45:52.081Z,1010.6
2022-12-19T13:48:52.115Z,1010.5
2022-12-19T13:51:53.530Z,1010.5
2022-12-19T13:54:52.605Z,1010.5
2022-12-19T13:57:52.879Z,1010.5
2022-12-19T14:00:54.245Z,1010.5
2022-12-19T14:03:53.459Z,1010.5
2022-12-19T14:06:53.474Z,1010.5
2022-12-19T14:13:51.095Z,1010.5
2022-12-19T14:14:10.744Z,1010.5
2022-12-19T14:15:54.343Z,1010.5
2022-12-19T14:18:54.371Z,1010.5
2022-12-19T14:22:20.740Z,1010.5
2022-12-19T14:24:54.860Z,1010.5
2022-12-19T14:28:29.153Z,1010.4
2022-12-19T14:30:55.400Z,1010.4
2022-12-19T14:34:35.732Z,1010.4
2022-12-19T14:36:55.865Z,1010.3
2022-12-19T14:39:56.049Z,1010.3
2022-12-19T14:54:31.032Z,1010.3
2022-12-19T14:55:18.598Z,1010.4
2022-12-19T14:56:08.549Z,1010.4
2022-12-19T14:56:16.019Z,1010.4
2022-12-19T14:56:53.710Z,1010.4
2022-12-19T14:58:57.335Z,1010.4
2022-12-19T15:01:12.803Z,1010.4
2022-12-19T15:04:55.271Z,1010.4
2022-12-19T15:07:12.352Z,1010.4
2022-12-19T15:11:19.605Z,1010.4
2022-12-19T15:14:59.950Z,1010.3
2022-12-19T15:15:53.896Z,1010.3
2022-12-19T15:18:53.988Z,1010.3
2022-12-19T15:21:54.221Z,1010.3
2022-12-19T15:24:54.645Z,1010.2
2022-12-19T15:27:54.649Z,1010.2
2022-12-19T15:30:54.999Z,1010.2
2022-12-19T15:34:38.065Z,1010.2
2022-12-19T15:36:55.377Z,1010.1
2022-12-19T15:39:55.590Z,1010.1
2022-12-19T15:42:50.793Z,1010.1
2022-12-19T15:45:51.032Z,1010
2022-12-19T15:48:51.137Z,1010
2022-12-19T15:51:51.351Z,1010
2022-12-19T15:54:51.813Z,1010
2022-12-19T15:57:51.788Z,1009.9
2022-12-19T16:00:51.996Z,1009.9
2022-12-19T16:03:52.424Z,1009.9
2022-12-19T16:06:52.490Z,1009.8
2022-12-19T16:09:52.734Z,1009.8
2022-12-19T16:12:52.927Z,1009.8
2022-12-19T16:15:53.212Z,1009.7
2022-12-19T16:18:53.380Z,1009.7
2022-12-19T16:21:53.642Z,1009.7
2022-12-19T16:24:53.832Z,1009.7
2022-12-19T16:27:54.091Z,1009.7
2022-12-19T16:30:54.292Z,1009.7
2022-12-19T16:33:54.556Z,1009.7
2022-12-19T16:36:54.782Z,1009.7
2022-12-19T16:39:54.976Z,1009.6
2022-12-19T16:42:55.195Z,1009.6
2022-12-19T16:46:00.551Z,1009.6
2022-12-19T16:48:55.690Z,1009.5
2022-12-19T16:51:55.904Z,1009.5
2022-12-19T16:54:56.113Z,1009.5
2022-12-19T16:57:56.334Z,1009.5
2022-12-19T17:00:51.609Z,1009.5
2022-12-19T17:03:51.815Z,1009.5
2022-12-19T17:06:52.047Z,1009.5
2022-12-19T17:09:52.307Z,1009.4
2022-12-19T17:12:52.499Z,1009.4
2022-12-19T17:15:56.650Z,1009.4
2022-12-19T17:18:52.965Z,1009.4
2022-12-19T17:21:53.199Z,1009.4
2022-12-19T17:24:53.400Z,1009.4
2022-12-19T17:27:53.662Z,1009.4
2022-12-19T17:30:53.913Z,1009.4
2022-12-19T17:33:54.096Z,1009.4
2022-12-19T17:36:54.362Z,1009.4
2022-12-19T17:39:54.518Z,1009.4
2022-12-19T17:42:54.762Z,1009.4
2022-12-19T17:45:55.057Z,1009.4
2022-12-19T17:48:55.196Z,1009.4
2022-12-19T17:51:55.421Z,1009.4
2022-12-19T17:54:55.650Z,1009.4
2022-12-19T17:57:55.940Z,1009.4
2022-12-19T18:00:51.146Z,1009.4
2022-12-19T18:03:51.448Z,1009.4
2022-12-19T18:06:51.553Z,1009.4
2022-12-19T18:09:51.945Z,1009.4
2022-12-19T18:12:52.043Z,1009.4
2022-12-19T18:15:52.269Z,1009.5
2022-12-19T18:18:52.468Z,1009.5
2022-12-19T18:21:52.672Z,1009.5
2022-12-19T18:24:52.937Z,1009.5
2022-12-19T18:27:53.184Z,1009.5
2022-12-19T18:30:53.446Z,1009.4
2022-12-19T18:33:53.638Z,1009.4
2022-12-19T18:36:53.854Z,1009.4
2022-12-19T18:39:54.098Z,1009.4
2022-12-19T18:42:54.323Z,1009.4
2022-12-19T18:45:54.574Z,1009.4
2022-12-19T18:48:55.438Z,1009.4
2022-12-19T18:51:55.014Z,1009.3
2022-12-19T18:54:55.237Z,1009.4
2022-12-19T18:57:55.467Z,1009.4
2022-12-19T19:00:58.974Z,1009.4
2022-12-19T19:03:50.945Z,1009.4
2022-12-19T19:06:56.125Z,1009.4
2022-12-19T19:09:51.363Z,1009.4
2022-12-19T19:12:51.605Z,1009.4
2022-12-19T19:15:51.821Z,1009.5
2022-12-19T19:18:52.081Z,1009.5
2022-12-19T19:21:52.287Z,1009.5
2022-12-19T19:24:52.521Z,1009.5
2022-12-19T19:27:52.871Z,1009.5
2022-12-19T19:30:53.044Z,1009.5
2022-12-19T19:33:53.208Z,1009.5
2022-12-19T19:36:53.383Z,1009.5
2022-12-19T19:39:53.617Z,1009.5
2022-12-19T19:42:53.842Z,1009.5
2022-12-19T19:45:54.138Z,1009.5
2022-12-19T19:48:54.311Z,1009.5
2022-12-19T19:52:00.316Z,1009.5
2022-12-19T19:54:54.761Z,1009.5
2022-12-19T19:57:55.004Z,1009.5
2022-12-19T20:00:55.225Z,1009.4
2022-12-19T20:03:55.552Z,1009.4
2022-12-19T20:07:05.628Z,1009.4
2022-12-19T20:09:50.904Z,1009.4
2022-12-19T20:12:51.099Z,1009.4
2022-12-19T20:15:51.451Z,1009.4
2022-12-19T20:18:51.609Z,1009.4
2022-12-19T20:21:51.854Z,1009.4
2022-12-19T20:24:52.053Z,1009.5
2022-12-19T20:27:52.279Z,1009.5
2022-12-19T20:30:52.615Z,1009.5
2022-12-19T20:33:52.706Z,1009.5
2022-12-19T20:36:52.971Z,1009.5
2022-12-19T20:39:53.153Z,1009.5
2022-12-19T20:42:53.412Z,1009.6
2022-12-19T20:45:53.621Z,1009.6
2022-12-19T20:48:53.847Z,1009.5
2022-12-19T20:51:54.082Z,1009.5
2022-12-19T20:54:54.323Z,1009.5
2022-12-19T20:57:54.546Z,1009.5
2022-12-19T21:00:54.749Z,1009.6
2022-12-19T21:03:55.329Z,1009.6
2022-12-19T21:06:55.229Z,1009.6
2022-12-19T21:09:55.435Z,1009.6
2022-12-19T21:12:55.653Z,1009.6
2022-12-19T21:15:55.952Z,1009.7
2022-12-19T21:18:56.181Z,1009.7
2022-12-19T21:21:51.362Z,1009.7
2022-12-19T21:24:51.570Z,1009.7
2022-12-19T21:27:51.802Z,1009.7
2022-12-19T21:30:52.075Z,1009.7
2022-12-19T21:33:52.289Z,1009.7
2022-12-19T21:36:52.461Z,1009.7
2022-12-19T21:39:52.697Z,1009.7
2022-12-19T21:42:52.924Z,1009.7
2022-12-19T21:45:53.177Z,1009.7
2022-12-19T21:48:53.402Z,1009.7
2022-12-19T21:51:53.595Z,1009.6
2022-12-19T21:54:53.913Z,1009.6
2022-12-19T21:57:54.078Z,1009.6
2022-12-19T22:00:54.306Z,1009.6
2022-12-19T22:03:54.591Z,1009.6
2022-12-19T22:06:54.768Z,1009.6
2022-12-19T22:09:55.008Z,1009.6
2022-12-19T22:12:55.227Z,1009.6
2022-12-19T22:15:55.500Z,1009.6
2022-12-19T22:18:55.664Z,1009.6
2022-12-19T22:21:50.926Z,1009.6
2022-12-19T22:24:51.119Z,1009.6
2022-12-19T22:27:51.342Z,1009.6
2022-12-19T22:30:51.575Z,1009.6
2022-12-19T22:33:51.838Z,1009.6
2022-12-19T22:36:52.065Z,1009.5
2022-12-19T22:39:53.171Z,1009.5
2022-12-19T22:42:52.490Z,1009.5
2022-12-19T22:45:52.771Z,1009.5
2022-12-19T22:48:52.944Z,1009.5
2022-12-19T22:51:53.180Z,1009.5
2022-12-19T22:54:53.402Z,1009.5
2022-12-19T22:57:53.647Z,1009.5
2022-12-19T23:00:53.875Z,1009.5
2022-12-19T23:03:54.331Z,1009.5
2022-12-19T23:06:54.353Z,1009.5
2022-12-19T23:09:54.550Z,1009.5
2022-12-19T23:12:54.758Z,1009.5
2022-12-19T23:15:55.013Z,1009.5
2022-12-19T23:18:55.220Z,1009.5
2022-12-19T23:21:55.442Z,1009.5
2022-12-19T23:24:55.675Z,1009.5
2022-12-19T23:27:55.935Z,1009.5
2022-12-19T23:30:56.171Z,1009.5
2022-12-19T23:33:56.391Z,1009.4
2022-12-19T23:37:12.328Z,1009.5
2022-12-19T23:39:51.879Z,1009.5
2022-12-19T23:42:52.082Z,1009.5
2022-12-19T23:45:52.328Z,1009.5
2022-12-19T23:48:52.514Z,1009.5
2022-12-19T23:51:52.746Z,1009.5
2022-12-19T23:54:52.955Z,1009.4
2022-12-19T23:57:53.175Z,1009.4
